createdAt,value
2022-12-01T00:01:07.903Z,0.90
2022-12-01T00:03:35.493Z,0.90
2022-12-01T00:06:10.348Z,0.90
2022-12-01T00:08:37.371Z,0.90
2022-12-01T00:11:14.294Z,0.80
2022-12-01T00:13:41.049Z,0.80
2022-12-01T00:16:16.880Z,0.90
2022-12-01T00:18:44.445Z,0.90
2022-12-01T00:21:15.665Z,1.00
2022-12-01T00:23:50.445Z,0.90
2022-12-01T00:26:18.486Z,1.00
2022-12-01T00:28:52.562Z,1.00
2022-12-01T00:31:20.187Z,1.00
2022-12-01T00:33:47.206Z,1.00
2022-12-01T00:36:14.171Z,0.90
2022-12-01T00:38:41.077Z,0.90
2022-12-01T00:41:08.190Z,0.90
2022-12-01T00:43:35.012Z,0.80
2022-12-01T00:46:01.854Z,0.90
2022-12-01T00:48:28.693Z,0.90
2022-12-01T00:50:55.880Z,0.90
2022-12-01T00:53:23.500Z,0.90
2022-12-01T00:55:50.804Z,0.90
2022-12-01T00:58:17.595Z,0.80
2022-12-01T01:00:44.384Z,0.90
2022-12-01T01:03:11.781Z,0.90
2022-12-01T01:05:40.916Z,0.90
2022-12-01T01:08:12.705Z,0.90
2022-12-01T01:10:40.905Z,0.80
2022-12-01T01:13:08.349Z,0.80
2022-12-01T01:15:35.985Z,0.80
2022-12-01T01:18:03.037Z,0.80
2022-12-01T01:20:30.104Z,0.90
2022-12-01T01:22:56.948Z,0.80
2022-12-01T01:25:24.005Z,0.80
2022-12-01T01:27:51.109Z,0.80
2022-12-01T01:30:18.630Z,0.90
2022-12-01T01:32:45.465Z,0.90
2022-12-01T01:35:12.500Z,0.80
2022-12-01T01:37:39.596Z,0.80
2022-12-01T01:40:08.046Z,0.80
2022-12-01T01:42:34.816Z,0.90
2022-12-01T01:45:01.613Z,0.90
2022-12-01T01:47:36.060Z,0.90
2022-12-01T01:50:14.065Z,0.90
2022-12-01T01:52:44.496Z,1.00
2022-12-01T01:55:12.263Z,1.00
2022-12-01T01:57:39.744Z,1.00
2022-12-01T02:00:14.827Z,1.00
2022-12-01T02:02:46.504Z,1.10
2022-12-01T02:05:25.459Z,1.10
2022-12-01T02:07:55.362Z,0.90
2022-12-01T02:10:29.680Z,0.80
2022-12-01T02:13:13.348Z,0.90
2022-12-01T02:16:00.882Z,0.80
2022-12-01T02:18:46.547Z,0.80
2022-12-01T02:21:36.741Z,0.80
2022-12-01T02:24:09.453Z,0.90
2022-12-01T02:26:49.391Z,0.90
2022-12-01T02:29:53.517Z,0.90
2022-12-01T02:32:26.366Z,0.90
2022-12-01T02:34:53.115Z,0.90
2022-12-01T02:37:49.669Z,0.70
2022-12-01T02:40:26.684Z,0.80
2022-12-01T02:43:15.340Z,0.80
2022-12-01T02:45:53.417Z,0.80
2022-12-01T02:48:26.508Z,0.80
2022-12-01T02:50:54.716Z,0.80
2022-12-01T02:53:21.721Z,0.70
2022-12-01T02:55:51.564Z,0.80
2022-12-01T02:58:18.472Z,0.70
2022-12-01T03:01:06.623Z,0.70
2022-12-01T03:03:52.305Z,0.70
2022-12-01T03:06:20.292Z,0.70
2022-12-01T03:09:12.889Z,0.60
2022-12-01T03:11:50.574Z,0.60
2022-12-01T03:14:42.740Z,0.60
2022-12-01T03:17:16.505Z,0.60
2022-12-01T03:19:56.402Z,0.70
2022-12-01T03:22:32.480Z,0.80
2022-12-01T03:25:02.323Z,0.60
2022-12-01T03:27:33.381Z,0.60
2022-12-01T03:30:01.837Z,0.60
2022-12-01T03:32:37.938Z,0.50
2022-12-01T03:35:27.035Z,0.40
2022-12-01T03:37:59.278Z,0.50
2022-12-01T03:40:28.388Z,0.40
2022-12-01T03:42:58.905Z,0.30
2022-12-01T03:45:41.977Z,0.40
2022-12-01T03:48:09.072Z,0.40
2022-12-01T03:50:45.172Z,0.50
2022-12-01T03:53:19.352Z,0.50
2022-12-01T03:55:52.210Z,0.40
2022-12-01T03:58:24.070Z,0.40
2022-12-01T04:00:57.484Z,0.40
2022-12-01T04:03:26.346Z,0.50
2022-12-01T04:05:53.458Z,0.50
2022-12-01T04:08:20.617Z,0.50
2022-12-01T04:10:47.506Z,0.40
2022-12-01T04:13:22.992Z,0.40
2022-12-01T04:15:51.318Z,0.50
2022-12-01T04:18:19.105Z,0.40
2022-12-01T04:20:47.201Z,0.40
2022-12-01T04:23:34.084Z,0.40
2022-12-01T04:26:02.926Z,0.40
2022-12-01T04:28:29.720Z,0.50
2022-12-01T04:30:56.622Z,0.40
2022-12-01T04:33:23.443Z,0.40
2022-12-01T04:35:58.220Z,0.50
2022-12-01T04:38:28.951Z,0.50
2022-12-01T04:40:57.523Z,0.50
2022-12-01T04:43:24.406Z,0.40
2022-12-01T04:45:51.268Z,0.50
2022-12-01T04:48:18.041Z,0.50
2022-12-01T04:50:44.834Z,0.60
2022-12-01T04:53:11.670Z,0.60
2022-12-01T04:55:39.306Z,0.50
2022-12-01T04:58:06.392Z,0.50
2022-12-01T05:00:33.689Z,0.60
2022-12-01T05:03:00.653Z,0.60
2022-12-01T05:05:27.710Z,0.60
2022-12-01T05:07:54.651Z,0.60
2022-12-01T05:10:22.176Z,0.40
2022-12-01T05:12:49.631Z,0.40
2022-12-01T05:15:16.833Z,0.40
2022-12-01T05:17:44.140Z,0.50
2022-12-01T05:20:41.490Z,0.50
2022-12-01T05:23:10.968Z,0.50
2022-12-01T05:25:42.404Z,0.50
2022-12-01T05:28:09.268Z,0.30
2022-12-01T05:30:36.198Z,0.30
2022-12-01T05:33:03.397Z,0.40
2022-12-01T05:35:30.283Z,0.30
2022-12-01T05:37:57.140Z,0.30
2022-12-01T05:40:23.950Z,0.30
2022-12-01T05:42:50.762Z,0.30
2022-12-01T05:45:17.841Z,0.30
2022-12-01T05:47:44.964Z,0.30
2022-12-01T05:50:11.795Z,0.40
2022-12-01T05:52:38.552Z,0.50
2022-12-01T05:55:06.776Z,0.40
2022-12-01T05:57:34.157Z,0.30
2022-12-01T06:00:00.957Z,0.40
2022-12-01T06:02:27.825Z,0.50
2022-12-01T06:04:54.672Z,0.60
2022-12-01T06:07:23.501Z,0.50
2022-12-01T06:09:50.801Z,0.50
2022-12-01T06:12:18.177Z,0.60
2022-12-01T06:14:45.192Z,0.60
2022-12-01T06:17:12.262Z,0.60
2022-12-01T06:19:39.414Z,0.50
2022-12-01T06:22:06.279Z,0.50
2022-12-01T06:24:33.096Z,0.60
2022-12-01T06:26:59.996Z,0.60
2022-12-01T06:29:26.827Z,0.40
2022-12-01T06:31:53.753Z,0.40
2022-12-01T06:34:20.581Z,0.40
2022-12-01T06:36:47.360Z,0.40
2022-12-01T06:39:16.558Z,0.30
2022-12-01T06:41:43.954Z,0.40
2022-12-01T06:44:11.220Z,0.30
2022-12-01T06:46:38.092Z,0.30
2022-12-01T06:49:05.057Z,0.30
2022-12-01T06:51:34.224Z,0.40
2022-12-01T06:54:05.444Z,0.50
2022-12-01T06:56:32.556Z,0.50
2022-12-01T06:58:59.807Z,0.30
2022-12-01T07:01:27.067Z,0.40
2022-12-01T07:03:54.779Z,0.50
2022-12-01T07:06:21.656Z,0.40
2022-12-01T07:08:48.492Z,0.30
2022-12-01T07:11:15.890Z,0.40
2022-12-01T07:13:47.057Z,0.40
2022-12-01T07:16:13.925Z,0.50
2022-12-01T07:18:41.208Z,0.60
2022-12-01T07:21:11.959Z,0.60
2022-12-01T07:23:39.181Z,0.60
2022-12-01T07:26:09.644Z,0.70
2022-12-01T07:28:36.609Z,0.70
2022-12-01T07:31:05.995Z,0.70
2022-12-01T07:33:33.384Z,0.60
2022-12-01T07:36:00.249Z,0.50
2022-12-01T07:38:31.007Z,0.50
2022-12-01T07:41:15.584Z,0.50
2022-12-01T07:43:43.149Z,0.50
2022-12-01T07:46:11.218Z,0.50
2022-12-01T07:48:39.536Z,0.50
2022-12-01T07:51:08.073Z,0.50
2022-12-01T07:53:35.464Z,0.50
2022-12-01T07:56:07.089Z,0.40
2022-12-01T07:58:35.681Z,0.40
2022-12-01T08:01:13.270Z,0.40
2022-12-01T08:03:40.652Z,0.50
2022-12-01T08:06:08.509Z,0.50
2022-12-01T08:08:37.551Z,0.50
2022-12-01T08:11:07.154Z,0.60
2022-12-01T08:13:34.554Z,0.50
2022-12-01T08:16:05.025Z,0.50
2022-12-01T08:18:35.231Z,0.40
2022-12-01T08:21:02.061Z,0.50
2022-12-01T08:23:29.007Z,0.50
2022-12-01T08:25:57.517Z,0.60
2022-12-01T08:28:24.383Z,0.60
2022-12-01T08:30:51.185Z,0.60
2022-12-01T08:33:17.996Z,0.60
2022-12-01T08:35:44.826Z,0.70
2022-12-01T08:38:12.199Z,0.60
2022-12-01T08:40:38.988Z,0.60
2022-12-01T08:43:05.906Z,0.50
2022-12-01T08:45:33.161Z,0.50
2022-12-01T08:47:59.959Z,0.50
2022-12-01T08:50:27.967Z,0.60
2022-12-01T08:52:55.080Z,0.60
2022-12-01T08:55:22.415Z,0.60
2022-12-01T08:57:49.229Z,0.60
2022-12-01T09:00:16.700Z,0.70
2022-12-01T09:02:43.530Z,0.70
2022-12-01T09:05:10.497Z,0.70
2022-12-01T09:07:37.438Z,0.60
2022-12-01T09:10:05.302Z,0.70
2022-12-01T09:12:32.117Z,0.80
2022-12-01T09:14:58.898Z,0.80
2022-12-01T09:17:25.709Z,0.80
2022-12-01T09:19:52.581Z,0.80
2022-12-01T09:22:19.654Z,0.80
2022-12-01T09:24:46.501Z,0.80
2022-12-01T09:27:13.352Z,0.70
2022-12-01T09:29:40.177Z,0.80
2022-12-01T09:32:06.935Z,0.80
2022-12-01T09:34:33.782Z,0.80
2022-12-01T09:37:00.718Z,0.80
2022-12-01T09:39:28.566Z,0.80
2022-12-01T09:42:16.336Z,0.70
2022-12-01T09:44:49.337Z,0.80
2022-12-01T09:47:22.468Z,0.80
2022-12-01T09:50:10.503Z,0.80
2022-12-01T09:53:03.028Z,0.80
2022-12-01T09:55:31.562Z,0.80
2022-12-01T09:58:00.997Z,0.80
2022-12-01T10:00:32.739Z,0.90
2022-12-01T10:03:16.634Z,0.90
2022-12-01T10:06:25.313Z,0.90
2022-12-01T10:08:47.574Z,0.80
2022-12-01T10:11:52.102Z,0.80
2022-12-01T10:14:22.072Z,1.00
2022-12-01T10:17:00.902Z,1.00
2022-12-01T10:19:48.632Z,1.10
2022-12-01T10:22:30.653Z,1.10
2022-12-01T10:25:14.912Z,1.10
2022-12-01T10:28:03.379Z,1.20
2022-12-01T10:30:30.351Z,1.10
2022-12-01T10:33:04.707Z,1.10
2022-12-01T10:35:37.599Z,1.10
2022-12-01T10:38:07.162Z,1.10
2022-12-01T10:40:35.248Z,1.10
2022-12-01T10:43:02.921Z,1.10
2022-12-01T10:45:34.443Z,1.20
2022-12-01T10:48:20.813Z,1.30
2022-12-01T10:50:57.037Z,1.20
2022-12-01T10:53:23.763Z,1.20
2022-12-01T10:56:01.755Z,1.10
2022-12-01T10:58:28.758Z,1.10
2022-12-01T11:01:00.033Z,1.00
2022-12-01T11:03:31.793Z,1.00
2022-12-01T11:06:01.371Z,1.10
2022-12-01T11:08:40.779Z,1.10
2022-12-01T11:11:23.320Z,1.10
2022-12-01T11:13:50.892Z,1.00
2022-12-01T11:16:41.235Z,0.90
2022-12-01T11:19:31.057Z,1.00
2022-12-01T11:22:00.567Z,1.10
2022-12-01T11:24:29.240Z,1.10
2022-12-01T11:26:58.653Z,1.10
2022-12-01T11:29:31.391Z,1.20
2022-12-01T11:31:59.925Z,1.30
2022-12-01T11:34:34.535Z,1.30
2022-12-01T11:37:04.587Z,1.40
2022-12-01T11:39:40.386Z,1.30
2022-12-01T11:42:30.377Z,1.20
2022-12-01T11:45:05.678Z,1.10
2022-12-01T11:47:32.476Z,1.20
2022-12-01T11:50:02.204Z,1.20
2022-12-01T11:52:36.420Z,1.10
2022-12-01T11:55:12.216Z,1.10
2022-12-01T11:57:44.505Z,1.10
2022-12-01T12:00:19.183Z,1.10
2022-12-01T12:03:04.713Z,1.20
2022-12-01T12:05:49.423Z,1.30
2022-12-01T12:08:16.175Z,1.30
2022-12-01T12:11:10.954Z,1.20
2022-12-01T12:14:03.033Z,1.20
2022-12-01T12:16:35.614Z,1.20
2022-12-01T12:19:25.423Z,1.30
2022-12-01T12:22:26.935Z,1.30
2022-12-01T12:25:42.908Z,1.10
2022-12-01T12:28:24.731Z,1.20
2022-12-01T12:31:01.473Z,1.20
2022-12-01T12:34:12.557Z,1.20
2022-12-01T12:36:59.759Z,1.30
2022-12-01T12:39:50.119Z,1.10
2022-12-01T12:42:51.388Z,1.10
2022-12-01T12:46:00.676Z,1.20
2022-12-01T12:49:03.551Z,1.10
2022-12-01T12:51:39.550Z,1.30
2022-12-01T12:54:34.770Z,1.30
2022-12-01T12:57:22.824Z,1.30
2022-12-01T13:00:02.335Z,1.30
2022-12-01T13:02:55.478Z,1.30
2022-12-01T13:05:34.060Z,1.30
2022-12-01T13:08:24.423Z,1.30
2022-12-01T13:10:58.127Z,1.30
2022-12-01T13:13:50.438Z,1.30
2022-12-01T13:16:26.309Z,1.20
2022-12-01T13:19:22.649Z,1.30
2022-12-01T13:21:51.873Z,1.30
2022-12-01T13:24:24.009Z,1.30
2022-12-01T13:27:01.267Z,1.30
2022-12-01T13:29:38.403Z,1.30
2022-12-01T13:32:27.871Z,1.40
2022-12-01T13:34:54.830Z,1.50
2022-12-01T13:37:33.735Z,1.50
2022-12-01T13:40:30.927Z,1.40
2022-12-01T13:43:08.572Z,1.40
2022-12-01T13:45:38.490Z,1.40
2022-12-01T13:48:06.817Z,1.40
2022-12-01T13:50:52.688Z,1.20
2022-12-01T13:53:19.579Z,1.20
2022-12-01T13:56:16.578Z,1.20
2022-12-01T13:58:50.140Z,1.20
2022-12-01T14:01:19.998Z,1.20
2022-12-01T14:04:18.385Z,1.30
2022-12-01T14:06:50.320Z,1.30
2022-12-01T14:09:28.013Z,1.30
2022-12-01T14:11:58.303Z,1.40
2022-12-01T14:14:27.578Z,1.40
2022-12-01T14:17:02.436Z,1.40
2022-12-01T14:19:48.868Z,1.40
2022-12-01T14:22:32.984Z,1.40
2022-12-01T14:25:00.963Z,1.30
2022-12-01T14:27:35.201Z,1.30
2022-12-01T14:30:39.261Z,1.40
2022-12-01T14:33:37.396Z,1.30
2022-12-01T14:36:07.749Z,1.30
2022-12-01T14:38:35.014Z,1.30
2022-12-01T14:41:09.268Z,1.30
2022-12-01T14:43:57.028Z,1.30
2022-12-01T14:46:27.339Z,1.30
2022-12-01T14:48:55.066Z,1.30
2022-12-01T14:51:34.344Z,1.40
2022-12-01T14:54:08.158Z,1.40
2022-12-01T14:56:37.230Z,1.40
2022-12-01T14:59:22.527Z,1.40
2022-12-01T15:01:51.671Z,1.40
2022-12-01T15:04:18.862Z,1.40
2022-12-01T15:06:46.035Z,1.50
2022-12-01T15:09:36.823Z,1.40
2022-12-01T15:12:08.696Z,1.40
2022-12-01T15:14:46.899Z,1.40
2022-12-01T15:17:30.701Z,1.40
2022-12-01T15:19:58.321Z,1.40
2022-12-01T15:22:30.314Z,1.40
2022-12-01T15:25:13.230Z,1.40
2022-12-01T15:27:40.012Z,1.40
2022-12-01T15:30:13.078Z,1.40
2022-12-01T15:32:43.158Z,1.30
2022-12-01T15:35:22.248Z,1.40
2022-12-01T15:37:50.453Z,1.40
2022-12-01T15:43:41.295Z,1.40
2022-12-01T15:46:18.190Z,1.40
2022-12-01T15:48:45.506Z,1.30
2022-12-01T15:51:26.564Z,1.30
2022-12-01T15:53:58.922Z,1.30
2022-12-01T15:56:32.874Z,1.30
2022-12-01T15:59:10.378Z,1.30
2022-12-01T16:01:37.828Z,1.40
2022-12-01T16:04:15.494Z,1.40
2022-12-01T16:06:42.788Z,1.30
2022-12-01T16:09:27.142Z,1.40
2022-12-01T16:12:09.058Z,1.40
2022-12-01T16:14:36.936Z,1.30
2022-12-01T16:17:08.178Z,1.30
2022-12-01T16:19:36.177Z,1.30
2022-12-01T16:22:12.313Z,1.30
2022-12-01T16:24:55.296Z,1.30
2022-12-01T16:27:26.050Z,1.20
2022-12-01T16:30:03.233Z,1.20
2022-12-01T16:32:33.588Z,1.20
2022-12-01T16:35:00.901Z,1.20
2022-12-01T16:37:28.050Z,1.20
2022-12-01T16:39:54.964Z,1.10
2022-12-01T16:42:22.565Z,1.10
2022-12-01T16:44:51.515Z,1.10
2022-12-01T16:47:23.043Z,1.10
2022-12-01T16:49:50.512Z,1.00
2022-12-01T16:55:04.882Z,1.00
2022-12-01T16:57:31.647Z,1.00
2022-12-01T16:59:58.463Z,1.00
2022-12-01T17:02:25.298Z,0.90
2022-12-01T17:04:52.385Z,0.90
2022-12-01T17:07:19.480Z,0.90
2022-12-01T17:09:46.371Z,0.90
2022-12-01T17:12:13.301Z,0.90
2022-12-01T17:14:40.219Z,0.90
2022-12-01T17:17:06.998Z,0.90
2022-12-01T17:19:33.859Z,0.90
2022-12-01T17:22:00.642Z,0.90
2022-12-01T17:24:27.415Z,0.90
2022-12-01T17:26:54.178Z,1.00
2022-12-01T17:29:20.968Z,0.90
2022-12-01T17:31:48.052Z,0.90
2022-12-01T17:34:15.757Z,0.90
2022-12-01T17:36:42.522Z,0.90
2022-12-01T17:39:09.440Z,0.90
2022-12-01T17:41:36.300Z,0.90
2022-12-01T17:44:04.224Z,0.90
2022-12-01T17:46:31.516Z,0.90
2022-12-01T17:48:59.286Z,0.90
2022-12-01T17:51:26.626Z,0.90
2022-12-01T17:53:54.062Z,0.90
2022-12-01T17:56:20.974Z,0.80
2022-12-01T17:58:50.371Z,0.90
2022-12-01T18:01:19.770Z,0.90
2022-12-01T18:03:48.562Z,1.00
2022-12-01T18:06:16.665Z,1.00
2022-12-01T18:08:43.807Z,1.00
2022-12-01T18:11:13.982Z,1.00
2022-12-01T18:13:43.869Z,0.90
2022-12-01T18:16:31.908Z,0.90
2022-12-01T18:18:59.860Z,1.00
2022-12-01T18:21:27.846Z,1.00
2022-12-01T18:23:57.036Z,1.00
2022-12-01T18:26:25.185Z,1.00
2022-12-01T18:28:57.258Z,0.90
2022-12-01T18:31:25.114Z,1.00
2022-12-01T18:33:52.913Z,1.00
2022-12-01T18:36:24.748Z,1.00
2022-12-01T18:38:53.410Z,1.00
2022-12-01T18:41:20.934Z,1.00
2022-12-01T18:43:47.915Z,1.00
2022-12-01T18:46:17.636Z,1.00
2022-12-01T18:48:51.051Z,1.00
2022-12-01T18:51:18.700Z,1.10
2022-12-01T18:53:45.729Z,1.00
2022-12-01T18:56:15.068Z,1.00
2022-12-01T18:58:42.455Z,1.00
2022-12-01T19:01:27.323Z,1.00
2022-12-01T19:03:58.405Z,1.00
2022-12-01T19:06:26.909Z,0.90
2022-12-01T19:08:54.389Z,1.00
2022-12-01T19:11:21.340Z,0.90
2022-12-01T19:13:48.453Z,1.00
2022-12-01T19:16:19.767Z,1.10
2022-12-01T19:18:46.656Z,1.00
2022-12-01T19:21:16.983Z,1.00
2022-12-01T19:23:44.237Z,1.00
2022-12-01T19:26:13.799Z,1.00
2022-12-01T19:28:42.236Z,1.00
2022-12-01T19:31:12.433Z,1.00
2022-12-01T19:33:39.618Z,1.00
2022-12-01T19:36:12.118Z,1.00
2022-12-01T19:38:39.997Z,1.00
2022-12-01T19:41:08.553Z,1.00
2022-12-01T19:43:35.959Z,1.00
2022-12-01T19:46:07.033Z,1.10
2022-12-01T19:48:33.911Z,1.10
2022-12-01T19:51:00.986Z,1.10
2022-12-01T19:53:33.143Z,1.10
2022-12-01T19:56:02.205Z,1.10
2022-12-01T19:58:29.471Z,1.00
2022-12-01T20:01:06.419Z,1.00
2022-12-01T20:03:33.306Z,1.10
2022-12-01T20:06:10.077Z,1.00
2022-12-01T20:08:37.180Z,1.00
2022-12-01T20:11:05.761Z,0.90
2022-12-01T20:13:33.943Z,0.90
2022-12-01T20:16:12.186Z,0.90
2022-12-01T20:18:40.257Z,0.90
2022-12-01T20:21:22.238Z,1.00
2022-12-01T20:24:04.474Z,1.00
2022-12-01T20:26:37.090Z,1.00
2022-12-01T20:29:13.626Z,0.90
2022-12-01T20:31:41.540Z,0.90
2022-12-01T20:34:11.718Z,0.90
2022-12-01T20:36:39.352Z,0.90
2022-12-01T20:39:08.895Z,0.90
2022-12-01T20:41:36.021Z,0.90
2022-12-01T20:44:07.180Z,0.90
2022-12-01T20:46:35.335Z,0.90
2022-12-01T20:49:02.260Z,0.90
2022-12-01T20:51:33.046Z,0.90
2022-12-01T20:54:26.820Z,0.90
2022-12-01T20:56:48.153Z,0.90
2022-12-01T20:59:15.042Z,0.90
2022-12-01T21:01:42.142Z,1.00
2022-12-01T21:04:08.985Z,1.00
2022-12-01T21:06:35.772Z,1.00
2022-12-01T21:09:04.311Z,1.10
2022-12-01T21:11:55.989Z,1.00
2022-12-01T21:14:28.782Z,0.90
2022-12-01T21:16:59.014Z,1.00
2022-12-01T21:20:08.833Z,1.00
2022-12-01T21:22:36.462Z,1.00
2022-12-01T21:25:12.702Z,1.10
2022-12-01T21:27:39.507Z,1.10
2022-12-01T21:30:18.794Z,1.00
2022-12-01T21:32:46.749Z,1.10
2022-12-01T21:35:18.071Z,1.10
2022-12-01T21:37:45.518Z,1.10
2022-12-01T21:40:23.887Z,1.00
2022-12-01T21:42:51.601Z,1.00
2022-12-01T21:45:30.260Z,1.00
2022-12-01T21:48:10.637Z,1.00
2022-12-01T21:50:37.503Z,1.10
2022-12-01T21:53:14.470Z,1.00
2022-12-01T21:55:43.781Z,1.10
2022-12-01T21:58:24.384Z,1.10
2022-12-01T22:00:52.808Z,1.10
2022-12-01T22:03:28.480Z,1.10
2022-12-01T22:06:28.230Z,1.20
2022-12-01T22:08:54.010Z,1.20
2022-12-01T22:11:26.355Z,1.20
2022-12-01T22:13:58.981Z,1.20
2022-12-01T22:16:33.863Z,1.20
2022-12-01T22:19:20.327Z,1.20
2022-12-01T22:21:49.470Z,1.10
2022-12-01T22:24:23.625Z,1.10
2022-12-01T22:27:22.121Z,1.20
2022-12-01T22:29:52.186Z,1.20
2022-12-01T22:32:56.288Z,1.20
2022-12-01T22:35:34.194Z,1.20
2022-12-01T22:38:25.256Z,1.20
2022-12-01T22:40:56.689Z,1.20
2022-12-01T22:43:45.330Z,1.20
2022-12-01T22:46:18.498Z,1.20
2022-12-01T22:48:50.316Z,1.20
2022-12-01T22:51:49.458Z,1.20
2022-12-01T22:54:16.119Z,1.20
2022-12-01T22:57:07.608Z,1.20
2022-12-01T22:59:36.163Z,1.10
2022-12-01T23:02:20.417Z,1.10
2022-12-01T23:04:49.190Z,1.10
2022-12-01T23:07:31.623Z,1.10
2022-12-01T23:10:06.555Z,1.20
2022-12-01T23:12:34.953Z,1.30
2022-12-01T23:15:32.139Z,1.30
2022-12-01T23:18:06.367Z,1.30
2022-12-01T23:20:34.349Z,1.30
2022-12-01T23:23:05.307Z,1.30
2022-12-01T23:25:34.392Z,1.30
2022-12-01T23:28:05.818Z,1.30
2022-12-01T23:30:33.392Z,1.20
2022-12-01T23:33:09.131Z,1.20
2022-12-01T23:35:43.730Z,1.20
2022-12-01T23:38:34.317Z,1.30
2022-12-01T23:41:06.076Z,1.30
2022-12-01T23:43:37.412Z,1.30
2022-12-01T23:46:09.725Z,1.40
2022-12-01T23:48:41.639Z,1.30
2022-12-01T23:51:38.501Z,1.30
2022-12-01T23:54:14.244Z,1.40
2022-12-01T23:56:41.016Z,1.40
2022-12-01T23:59:13.345Z,1.40
